Time;durP1;ratioP1;P1;durP2;ratioP2;P2;SDS_P1;SDS_P2;PMS_P1;PMS_P2;Temp;Humidity;BMP_temperature;BMP_pressure;BME280_temperature;BME280_humidity;BME280_pressure;Samples;Min_cycle;Max_cycle;Signal;HPM_P1;HPM_P2
2023/01/04 00:01:11;;;;;;;6.80;3.50;;;;;;;;;;5078024;28;20218;-69
2023/01/04 00:03:37;;;;;;;10.10;3.40;;;;;;;;;;5077658;28;20195;-68
2023/01/04 00:06:04;;;;;;;8.80;3.47;;;;;;;;;;5079736;28;20271;-68
2023/01/04 00:08:30;;;;;;;9.07;3.97;;;;;;;;;;5077137;28;20181;-69
2023/01/04 00:11:00;;;;;;;10.67;3.73;;;;;;;;;;5095213;28;20201;-68
2023/01/04 00:13:26;;;;;;;7.63;3.43;;;;;;;;;;5089288;28;20208;-68
2023/01/04 00:15:52;;;;;;;7.57;3.40;;;;;;;;;;5101928;28;20177;-69
2023/01/04 00:18:18;;;;;;;10.67;4.57;;;;;;;;;;5091791;28;20253;-69
2023/01/04 00:20:44;;;;;;;13.73;6.00;;;;;;;;;;5091286;28;20216;-68
2023/01/04 00:23:10;;;;;;;16.23;6.17;;;;;;;;;;5105301;28;20552;-69
2023/01/04 00:25:38;;;;;;;12.87;6.00;;;;;;;;;;5097489;28;20629;-68
2023/01/04 00:28:04;;;;;;;12.63;5.13;;;;;;;;;;5079062;28;20185;-67
2023/01/04 00:30:30;;;;;;;9.47;4.57;;;;;;;;;;5096495;28;20200;-68
2023/01/04 00:32:59;;;;;;;12.80;3.93;;;;;;;;;;5096447;28;20276;-67
2023/01/04 00:35:25;;;;;;;8.80;3.67;;;;;;;;;;5078182;28;20220;-68
2023/01/04 00:37:51;;;;;;;7.73;2.97;;;;;;;;;;5095939;28;20173;-68
2023/01/04 00:40:17;;;;;;;8.80;3.37;;;;;;;;;;5096311;28;20258;-67
2023/01/04 00:42:43;;;;;;;7.50;3.00;;;;;;;;;;5077466;28;20264;-67
2023/01/04 00:45:09;;;;;;;9.83;3.00;;;;;;;;;;5095431;28;20226;-68
2023/01/04 00:47:35;;;;;;;8.93;3.20;;;;;;;;;;5095486;28;20260;-68
2023/01/04 00:50:02;;;;;;;7.63;2.93;;;;;;;;;;5097192;28;20228;-68
2023/01/04 00:52:28;;;;;;;9.27;3.17;;;;;;;;;;5095936;28;20177;-69
2023/01/04 00:54:54;;;;;;;7.60;2.80;;;;;;;;;;5076237;28;20546;-68
2023/01/04 00:57:20;;;;;;;9.07;2.70;;;;;;;;;;5094125;28;20637;-68
2023/01/04 00:59:46;;;;;;;8.83;3.00;;;;;;;;;;5094695;28;20581;-68
2023/01/04 01:02:12;;;;;;;7.73;3.20;;;;;;;;;;5077259;28;20528;-68
2023/01/04 01:04:38;;;;;;;7.00;3.10;;;;;;;;;;5076041;28;20532;-68
2023/01/04 01:07:04;;;;;;;7.63;3.60;;;;;;;;;;5076152;28;20637;-68
2023/01/04 01:09:30;;;;;;;10.63;3.90;;;;;;;;;;5096525;28;20204;-68
2023/01/04 01:11:56;;;;;;;9.33;3.77;;;;;;;;;;5096376;28;20183;-68
2023/01/04 01:14:23;;;;;;;10.30;3.37;;;;;;;;;;5078511;28;20699;-68
2023/01/04 01:16:49;;;;;;;7.20;3.10;;;;;;;;;;5096651;28;20173;-69
2023/01/04 01:19:15;;;;;;;8.97;3.60;;;;;;;;;;5095969;28;20311;-68
2023/01/04 01:21:41;;;;;;;12.63;3.53;;;;;;;;;;5095697;28;20177;-68
2023/01/04 01:24:09;;;;;;;7.83;3.30;;;;;;;;;;5077221;28;20173;-68
2023/01/04 01:26:35;;;;;;;9.40;3.57;;;;;;;;;;5077519;28;20181;-68
2023/01/04 01:29:01;;;;;;;11.10;3.77;;;;;;;;;;5095406;28;20310;-68
2023/01/04 01:31:28;;;;;;;10.47;3.67;;;;;;;;;;5095560;28;20216;-68
2023/01/04 01:33:55;;;;;;;8.23;3.53;;;;;;;;;;5077153;28;20185;-68
2023/01/04 01:36:22;;;;;;;12.77;3.53;;;;;;;;;;5094783;28;20176;-68
2023/01/04 01:38:48;;;;;;;12.90;3.57;;;;;;;;;;5076380;28;20200;-68
2023/01/04 01:41:22;;;;;;;8.57;3.30;;;;;;;;;;5077058;28;20707;-68
2023/01/04 01:43:50;;;;;;;9.13;3.40;;;;;;;;;;5094644;28;20195;-69
2023/01/04 01:46:19;;;;;;;9.57;3.30;;;;;;;;;;5076532;28;20272;-68
2023/01/04 01:48:45;;;;;;;10.43;2.97;;;;;;;;;;5076241;28;20189;-68
2023/01/04 01:51:12;;;;;;;11.63;3.27;;;;;;;;;;5076205;28;20205;-68
2023/01/04 01:53:39;;;;;;;7.03;2.83;;;;;;;;;;5094183;28;20638;-68
2023/01/04 01:56:06;;;;;;;8.47;2.80;;;;;;;;;;5076151;28;20532;-69
2023/01/04 01:58:34;;;;;;;9.10;2.63;;;;;;;;;;5076375;28;20208;-70
2023/01/04 02:01:00;;;;;;;10.53;3.20;;;;;;;;;;5076421;28;20250;-69
2023/01/04 02:03:29;;;;;;;7.47;2.87;;;;;;;;;;5094761;28;20188;-69
2023/01/04 02:05:56;;;;;;;8.40;2.80;;;;;;;;;;5094411;28;20186;-69
2023/01/04 02:08:24;;;;;;;9.13;2.87;;;;;;;;;;5076224;28;20533;-69
2023/01/04 02:10:50;;;;;;;8.60;2.93;;;;;;;;;;5094348;28;20676;-69
2023/01/04 02:13:20;;;;;;;6.97;3.67;;;;;;;;;;5075890;28;20178;-69
2023/01/04 02:15:55;;;;;;;11.00;2.90;;;;;;;;;;5094178;28;20540;-69
2023/01/04 02:18:26;;;;;;;7.73;3.23;;;;;;;;;;5094168;28;20239;-68
2023/01/04 02:20:57;;;;;;;8.53;3.40;;;;;;;;;;5075669;28;20274;-69
2023/01/04 02:23:32;;;;;;;10.90;3.47;;;;;;;;;;5093780;28;20158;-68
2023/01/04 02:26:01;;;;;;;7.33;3.57;;;;;;;;;;5093686;28;20682;-69
2023/01/04 02:28:41;;;;;;;7.83;3.30;;;;;;;;;;5093603;28;20547;-68
2023/01/04 02:31:18;;;;;;;9.37;3.53;;;;;;;;;;5096517;28;20201;-69
2023/01/04 02:33:50;;;;;;;9.93;3.10;;;;;;;;;;5095094;28;20169;-68
2023/01/04 02:36:32;;;;;;;7.57;3.07;;;;;;;;;;5093531;28;20585;-68
2023/01/04 02:39:34;;;;;;;8.17;3.13;;;;;;;;;;5092933;28;20239;-68
2023/01/04 02:42:07;;;;;;;9.23;3.87;;;;;;;;;;4994842;28;20285;-68
2023/01/04 02:44:54;;;;;;;8.77;3.80;;;;;;;;;;5081115;28;20201;-68
2023/01/04 02:50:32;;;;;;;11.30;3.30;;;;;;;;;;5097063;28;20212;-68
2023/01/04 02:52:58;;;;;;;10.10;4.03;;;;;;;;;;5079049;28;20209;-68
2023/01/04 02:55:25;;;;;;;8.63;3.70;;;;;;;;;;5078998;28;20633;-68
2023/01/04 02:58:11;;;;;;;9.87;3.63;;;;;;;;;;5078851;28;20181;-68
2023/01/04 03:06:28;;;;;;;12.07;3.33;;;;;;;;;;5096844;28;20291;-68
2023/01/04 03:08:54;;;;;;;5.33;3.40;;;;;;;;;;5078149;28;20188;-68
2023/01/04 03:14:22;;;;;;;7.53;3.37;;;;;;;;;;5096550;28;20181;-68
2023/01/04 03:16:49;;;;;;;7.47;2.67;;;;;;;;;;5096052;28;20209;-68
2023/01/04 03:19:50;;;;;;;7.13;2.50;;;;;;;;;;5096224;28;20233;-69
2023/01/04 03:22:03;;;;;;;5.57;2.50;;;;;;;;;;5095818;28;20181;-68
2023/01/04 03:35:49;;;;;;;4.83;2.13;;;;;;;;;;5096318;28;20264;-68
2023/01/04 03:49:56;;;;;;;6.30;2.07;;;;;;;;;;5096095;28;20582;-68
2023/01/04 03:52:23;;;;;;;5.00;1.97;;;;;;;;;;5077558;28;20177;-68
2023/01/04 03:54:49;;;;;;;4.67;1.60;;;;;;;;;;5077617;28;20693;-68
2023/01/04 03:57:16;;;;;;;5.77;1.50;;;;;;;;;;5095539;28;20637;-68
2023/01/04 03:59:45;;;;;;;2.73;1.50;;;;;;;;;;5095352;28;20691;-69
2023/01/04 04:02:13;;;;;;;3.23;1.70;;;;;;;;;;5077286;28;20178;-68
2023/01/04 04:10:08;;;;;;;5.50;1.60;;;;;;;;;;5096701;28;20208;-68
2023/01/04 04:12:34;;;;;;;4.50;1.60;;;;;;;;;;5079594;28;20185;-69
2023/01/04 04:15:00;;;;;;;2.07;1.40;;;;;;;;;;5078967;28;20180;-68
2023/01/04 04:17:26;;;;;;;1.53;1.27;;;;;;;;;;5077980;28;20641;-68
2023/01/04 04:19:52;;;;;;;4.10;1.70;;;;;;;;;;5077933;28;20676;-68
2023/01/04 04:22:18;;;;;;;3.20;1.37;;;;;;;;;;5095729;28;20260;-68
2023/01/04 04:24:44;;;;;;;2.37;1.33;;;;;;;;;;5095697;28;20180;-69
2023/01/04 04:27:10;;;;;;;1.87;1.37;;;;;;;;;;5077199;28;20177;-69
2023/01/04 04:29:37;;;;;;;2.87;1.53;;;;;;;;;;5095360;28;20254;-69
2023/01/04 04:32:03;;;;;;;3.53;1.60;;;;;;;;;;5076722;28;20628;-69
2023/01/04 04:34:29;;;;;;;3.97;1.80;;;;;;;;;;5095470;28;20181;-69
2023/01/04 04:36:55;;;;;;;1.43;1.33;;;;;;;;;;5077148;28;20181;-69
2023/01/04 04:39:21;;;;;;;2.03;1.50;;;;;;;;;;5076845;28;20691;-68
2023/01/04 04:41:47;;;;;;;1.77;1.50;;;;;;;;;;5077051;28;20177;-69
2023/01/04 04:44:14;;;;;;;1.50;1.30;;;;;;;;;;5094897;28;20173;-68
2023/01/04 04:46:40;;;;;;;1.50;1.40;;;;;;;;;;5094952;28;20181;-68
2023/01/04 04:49:07;;;;;;;4.67;1.60;;;;;;;;;;5094722;28;20651;-69
2023/01/04 04:51:33;;;;;;;4.20;1.70;;;;;;;;;;5094923;28;20678;-69
2023/01/04 04:53:59;;;;;;;1.33;1.23;;;;;;;;;;5094771;28;20173;-68
2023/01/04 04:56:25;;;;;;;1.50;1.40;;;;;;;;;;5094530;28;20177;-68
2023/01/04 04:58:51;;;;;;;2.30;1.10;;;;;;;;;;5094325;28;20250;-68
2023/01/04 05:01:17;;;;;;;1.47;1.27;;;;;;;;;;5094497;28;20193;-68
2023/01/04 05:03:43;;;;;;;1.10;1.10;;;;;;;;;;5095472;28;20715;-69
2023/01/04 05:06:09;;;;;;;1.20;1.10;;;;;;;;;;5095983;28;20173;-68
2023/01/04 05:08:35;;;;;;;1.07;1.03;;;;;;;;;;5075749;28;20549;-68
2023/01/04 05:11:05;;;;;;;1.77;1.17;;;;;;;;;;5094557;28;20645;-68
2023/01/04 05:13:30;;;;;;;1.33;1.00;;;;;;;;;;5094239;28;20177;-68
2023/01/04 05:15:56;;;;;;;1.20;1.10;;;;;;;;;;5094202;28;20222;-69
2023/01/04 05:18:22;;;;;;;2.67;1.20;;;;;;;;;;5095382;28;20209;-68
2023/01/04 05:20:49;;;;;;;1.43;1.20;;;;;;;;;;5076725;28;20577;-68
2023/01/04 05:23:16;;;;;;;1.90;1.10;;;;;;;;;;5095232;28;20707;-68
2023/01/04 05:25:42;;;;;;;1.30;1.10;;;;;;;;;;5094914;28;20189;-68
2023/01/04 05:28:09;;;;;;;1.60;1.40;;;;;;;;;;5076584;28;20181;-68
2023/01/04 05:30:50;;;;;;;3.33;1.40;;;;;;;;;;5094299;28;20704;-69
2023/01/04 05:33:17;;;;;;;1.43;1.10;;;;;;;;;;5093910;28;20214;-68
2023/01/04 05:35:43;;;;;;;1.33;1.00;;;;;;;;;;5094227;28;20591;-68
2023/01/04 05:38:09;;;;;;;3.90;1.07;;;;;;;;;;5076005;28;20283;-68
2023/01/04 05:40:35;;;;;;;3.20;1.30;;;;;;;;;;5094331;28;20580;-69
2023/01/04 05:43:01;;;;;;;2.73;1.43;;;;;;;;;;5094708;28;20243;-68
2023/01/04 05:45:27;;;;;;;1.10;1.10;;;;;;;;;;5094358;28;20646;-68
2023/01/04 05:47:53;;;;;;;1.30;1.20;;;;;;;;;;5094542;28;20176;-68
2023/01/04 05:50:21;;;;;;;1.47;1.10;;;;;;;;;;5094315;28;20672;-68
2023/01/04 05:52:47;;;;;;;1.10;1.10;;;;;;;;;;5095445;28;20243;-68
2023/01/04 05:55:13;;;;;;;2.27;1.40;;;;;;;;;;5097714;28;20169;-69
2023/01/04 05:57:39;;;;;;;2.63;1.37;;;;;;;;;;5099187;28;20624;-68
2023/01/04 06:00:05;;;;;;;2.97;1.50;;;;;;;;;;5097085;28;20212;-69
2023/01/04 06:02:31;;;;;;;2.03;1.43;;;;;;;;;;5104550;28;20181;-70
2023/01/04 06:04:59;;;;;;;1.77;1.20;;;;;;;;;;5109442;28;20203;-68
2023/01/04 06:07:25;;;;;;;1.03;1.03;;;;;;;;;;5108130;28;20169;-69
2023/01/04 06:09:51;;;;;;;4.20;1.20;;;;;;;;;;5090146;28;20201;-69
2023/01/04 06:12:17;;;;;;;1.90;1.20;;;;;;;;;;5109748;28;20180;-69
2023/01/04 06:14:43;;;;;;;2.13;1.10;;;;;;;;;;5078096;28;20177;-68
2023/01/04 06:17:09;;;;;;;1.17;1.07;;;;;;;;;;5093596;28;20252;-69
2023/01/04 06:19:35;;;;;;;2.60;1.30;;;;;;;;;;5093476;28;20586;-68
2023/01/04 06:22:01;;;;;;;2.30;1.20;;;;;;;;;;5097016;28;20173;-67
2023/01/04 06:24:27;;;;;;;1.83;1.13;;;;;;;;;;5097259;28;20270;-69
2023/01/04 06:26:52;;;;;;;3.40;1.20;;;;;;;;;;5079115;28;20213;-69
2023/01/04 06:29:18;;;;;;;2.30;1.10;;;;;;;;;;5097224;28;20254;-69
2023/01/04 06:31:44;;;;;;;1.93;1.33;;;;;;;;;;5097110;28;20184;-69
2023/01/04 06:34:11;;;;;;;2.10;1.20;;;;;;;;;;5078837;28;20598;-69
2023/01/04 06:36:37;;;;;;;2.37;1.40;;;;;;;;;;5097265;28;20173;-68
2023/01/04 06:39:03;;;;;;;1.33;1.10;;;;;;;;;;5096925;28;20201;-69
2023/01/04 06:41:29;;;;;;;1.27;1.17;;;;;;;;;;5097084;28;20173;-68
2023/01/04 06:43:55;;;;;;;1.40;1.30;;;;;;;;;;5102336;28;20264;-68
2023/01/04 06:46:21;;;;;;;3.63;1.10;;;;;;;;;;5084644;28;20177;-68
2023/01/04 06:48:47;;;;;;;2.47;1.37;;;;;;;;;;5082788;28;20549;-69
2023/01/04 06:51:13;;;;;;;1.80;1.30;;;;;;;;;;5103048;28;20604;-69
2023/01/04 06:53:39;;;;;;;1.17;1.17;;;;;;;;;;5083982;28;20188;-68
2023/01/04 06:56:05;;;;;;;1.30;1.20;;;;;;;;;;5083250;28;20263;-69
2023/01/04 06:58:31;;;;;;;1.17;1.00;;;;;;;;;;5102497;28;20209;-69
2023/01/04 07:00:57;;;;;;;2.23;1.73;;;;;;;;;;5083669;28;20695;-71
2023/01/04 07:03:23;;;;;;;1.50;1.40;;;;;;;;;;5101153;28;20633;-68
2023/01/04 07:05:49;;;;;;;1.20;1.10;;;;;;;;;;5083487;28;20601;-69
2023/01/04 07:08:15;;;;;;;4.17;1.30;;;;;;;;;;5102073;28;20201;-69
2023/01/04 07:10:41;;;;;;;1.47;1.10;;;;;;;;;;5100573;28;20688;-68
2023/01/04 07:13:07;;;;;;;1.43;1.20;;;;;;;;;;5082804;28;20181;-70
2023/01/04 07:15:33;;;;;;;1.50;1.40;;;;;;;;;;5082362;28;20642;-69
2023/01/04 07:17:59;;;;;;;1.00;1.00;;;;;;;;;;5097564;28;20192;-68
2023/01/04 07:20:25;;;;;;;1.47;1.37;;;;;;;;;;5096493;28;20228;-69
2023/01/04 07:22:51;;;;;;;1.40;1.30;;;;;;;;;;5078438;28;20177;-68
2023/01/04 07:25:17;;;;;;;2.33;1.40;;;;;;;;;;5096214;28;20252;-68
2023/01/04 07:27:44;;;;;;;3.07;1.37;;;;;;;;;;5096491;28;20208;-68
2023/01/04 07:30:10;;;;;;;1.50;1.30;;;;;;;;;;5096339;28;20664;-68
2023/01/04 07:32:36;;;;;;;2.30;1.40;;;;;;;;;;5095936;28;20234;-68
2023/01/04 07:35:02;;;;;;;1.20;1.10;;;;;;;;;;5096808;28;20180;-68
2023/01/04 07:37:28;;;;;;;1.47;1.37;;;;;;;;;;5096634;28;20648;-68
2023/01/04 07:39:54;;;;;;;1.40;1.30;;;;;;;;;;5078190;28;20254;-68
2023/01/04 07:42:20;;;;;;;3.17;1.30;;;;;;;;;;5096377;28;20218;-68
2023/01/04 07:44:46;;;;;;;1.60;1.13;;;;;;;;;;5096030;28;20180;-68
2023/01/04 07:47:12;;;;;;;1.30;1.23;;;;;;;;;;5095929;28;20684;-68
2023/01/04 07:49:38;;;;;;;4.30;1.30;;;;;;;;;;5096061;28;20232;-68
2023/01/04 07:52:04;;;;;;;2.03;1.23;;;;;;;;;;5096060;28;20656;-68
2023/01/04 07:54:30;;;;;;;1.53;1.30;;;;;;;;;;5100312;28;20235;-68
2023/01/04 07:56:56;;;;;;;1.07;0.97;;;;;;;;;;5100241;28;20265;-68
2023/01/04 07:59:22;;;;;;;2.17;1.20;;;;;;;;;;5098243;28;20211;-68
2023/01/04 08:01:49;;;;;;;3.27;1.30;;;;;;;;;;5096728;28;20200;-68
2023/01/04 08:04:15;;;;;;;1.37;1.27;;;;;;;;;;5097168;28;20665;-68
2023/01/04 08:06:42;;;;;;;1.60;1.27;;;;;;;;;;5095705;28;20170;-68
2023/01/04 08:09:10;;;;;;;2.73;1.50;;;;;;;;;;5095351;28;20653;-68
2023/01/04 08:11:36;;;;;;;1.87;1.43;;;;;;;;;;5077446;28;20192;-68
2023/01/04 08:14:02;;;;;;;1.30;1.20;;;;;;;;;;5077464;28;20189;-68
2023/01/04 08:16:32;;;;;;;4.67;1.53;;;;;;;;;;5095824;28;20181;-69
2023/01/04 08:18:59;;;;;;;1.13;1.10;;;;;;;;;;5095571;28;20200;-68
2023/01/04 08:21:26;;;;;;;1.40;1.30;;;;;;;;;;5077222;28;20238;-68
2023/01/04 08:23:52;;;;;;;2.40;1.23;;;;;;;;;;5095261;28;20174;-68
2023/01/04 08:26:20;;;;;;;2.03;1.20;;;;;;;;;;5095114;28;20180;-69
2023/01/04 08:28:46;;;;;;;2.30;1.30;;;;;;;;;;5095779;28;20177;-68
2023/01/04 08:31:16;;;;;;;2.83;1.70;;;;;;;;;;5095220;28;20250;-68
2023/01/04 08:33:43;;;;;;;3.13;1.23;;;;;;;;;;5095097;28;20256;-68
2023/01/04 08:36:16;;;;;;;3.03;1.47;;;;;;;;;;5076888;28;20256;-69
2023/01/04 08:38:42;;;;;;;1.33;1.23;;;;;;;;;;5076592;28;20201;-68
2023/01/04 08:41:08;;;;;;;1.47;1.20;;;;;;;;;;5096208;28;20201;-69
2023/01/04 08:43:37;;;;;;;3.03;1.40;;;;;;;;;;5094251;28;20181;-68
2023/01/04 08:46:04;;;;;;;3.80;1.40;;;;;;;;;;5094812;28;20181;-69
2023/01/04 08:48:30;;;;;;;2.43;1.13;;;;;;;;;;5094556;28;20199;-68
2023/01/04 08:51:00;;;;;;;1.53;1.33;;;;;;;;;;5076636;28;20212;-69
2023/01/04 08:53:26;;;;;;;1.77;1.30;;;;;;;;;;5095035;28;20645;-69
2023/01/04 08:55:52;;;;;;;1.20;1.10;;;;;;;;;;5076783;28;20191;-69
2023/01/04 08:58:18;;;;;;;2.50;1.63;;;;;;;;;;5076523;28;20212;-68
2023/01/04 09:00:44;;;;;;;2.30;1.20;;;;;;;;;;5094801;28;20200;-70
2023/01/04 09:03:10;;;;;;;2.30;1.50;;;;;;;;;;5094228;28;20177;-70
2023/01/04 09:05:36;;;;;;;1.30;1.20;;;;;;;;;;5094674;28;20222;-70
2023/01/04 09:08:02;;;;;;;1.93;1.23;;;;;;;;;;5094655;28;20177;-69
2023/01/04 09:10:28;;;;;;;1.80;1.20;;;;;;;;;;5094211;28;20193;-70
2023/01/04 09:12:54;;;;;;;3.47;1.50;;;;;;;;;;5094362;28;20192;-69
2023/01/04 09:15:20;;;;;;;2.07;1.50;;;;;;;;;;5094655;28;20173;-67
2023/01/04 09:17:48;;;;;;;1.83;1.20;;;;;;;;;;5076633;28;20177;-67
2023/01/04 09:20:14;;;;;;;2.70;1.30;;;;;;;;;;5076686;28;20220;-67
2023/01/04 09:22:40;;;;;;;1.87;1.40;;;;;;;;;;5094799;28;20188;-67
2023/01/04 09:25:06;;;;;;;5.43;1.70;;;;;;;;;;5094441;28;20177;-67
2023/01/04 09:27:33;;;;;;;2.63;1.30;;;;;;;;;;5094437;28;20260;-67
2023/01/04 09:29:59;;;;;;;2.13;1.43;;;;;;;;;;5094959;28;20196;-67
2023/01/04 09:32:25;;;;;;;2.00;1.50;;;;;;;;;;5076711;28;20272;-67
2023/01/04 09:34:51;;;;;;;1.90;1.70;;;;;;;;;;5094470;28;20628;-68
2023/01/04 09:37:17;;;;;;;3.20;1.80;;;;;;;;;;5076272;28;20180;-68
2023/01/04 09:39:44;;;;;;;3.23;1.50;;;;;;;;;;5094430;28;20258;-67
2023/01/04 09:42:21;;;;;;;1.87;1.50;;;;;;;;;;5094679;28;20260;-68
2023/01/04 09:44:52;;;;;;;2.47;1.73;;;;;;;;;;5094833;28;20157;-68
2023/01/04 09:47:21;;;;;;;2.87;1.70;;;;;;;;;;5094580;28;20203;-68
2023/01/04 09:49:50;;;;;;;1.90;1.70;;;;;;;;;;5094458;28;20201;-68
2023/01/04 09:52:19;;;;;;;3.77;1.83;;;;;;;;;;5094913;28;20528;-68
2023/01/04 09:54:48;;;;;;;2.73;1.40;;;;;;;;;;5083416;28;20180;-69
2023/01/04 09:57:22;;;;;;;4.23;1.67;;;;;;;;;;5103977;28;20181;-68
2023/01/04 09:59:50;;;;;;;4.00;1.70;;;;;;;;;;5085584;28;20242;-68
2023/01/04 10:02:20;;;;;;;3.00;1.40;;;;;;;;;;5085361;28;20204;-69
2023/01/04 10:04:48;;;;;;;2.50;1.40;;;;;;;;;;5104787;28;20162;-68
2023/01/04 10:07:17;;;;;;;2.63;1.57;;;;;;;;;;5104575;28;20181;-68
2023/01/04 10:09:43;;;;;;;2.13;1.40;;;;;;;;;;5086554;28;20648;-69
2023/01/04 10:12:27;;;;;;;2.20;1.47;;;;;;;;;;5103972;28;20187;-68
2023/01/04 10:14:59;;;;;;;1.57;1.37;;;;;;;;;;5103070;28;20157;-68
2023/01/04 10:17:46;;;;;;;3.73;1.87;;;;;;;;;;5105298;28;20173;-68
2023/01/04 10:20:47;;;;;;;1.60;1.50;;;;;;;;;;5103477;28;20231;-68
2023/01/04 10:23:21;;;;;;;4.37;2.10;;;;;;;;;;5021385;28;20722;-68
2023/01/04 10:25:52;;;;;;;4.70;1.73;;;;;;;;;;5073266;28;20553;-68
2023/01/04 10:28:30;;;;;;;3.67;1.80;;;;;;;;;;5100992;28;20158;-68
2023/01/04 10:30:59;;;;;;;3.03;1.83;;;;;;;;;;5098820;28;20197;-68
2023/01/04 10:33:33;;;;;;;4.90;1.57;;;;;;;;;;5098953;28;20173;-68
2023/01/04 10:35:59;;;;;;;2.40;1.70;;;;;;;;;;5099285;28;20170;-68
2023/01/04 10:38:27;;;;;;;2.40;1.60;;;;;;;;;;5099337;28;20201;-68
2023/01/04 10:40:55;;;;;;;3.67;1.53;;;;;;;;;;5099012;28;20197;-69
2023/01/04 10:43:33;;;;;;;3.93;1.80;;;;;;;;;;5098895;28;20177;-68
2023/01/04 10:46:07;;;;;;;2.57;1.70;;;;;;;;;;5098793;28;20161;-68
2023/01/04 10:48:37;;;;;;;3.07;1.50;;;;;;;;;;5098153;28;20192;-68
2023/01/04 10:51:05;;;;;;;2.47;1.93;;;;;;;;;;5098181;28;20672;-68
2023/01/04 10:53:44;;;;;;;4.30;1.90;;;;;;;;;;5079707;28;20189;-68
2023/01/04 10:56:25;;;;;;;5.17;1.80;;;;;;;;;;5097798;28;20172;-68
2023/01/04 10:59:00;;;;;;;2.60;1.60;;;;;;;;;;5096748;28;20204;-68
2023/01/04 11:01:33;;;;;;;1.60;1.50;;;;;;;;;;5097229;28;20566;-68
2023/01/04 11:04:02;;;;;;;4.30;1.50;;;;;;;;;;5098179;28;20227;-68
2023/01/04 11:06:30;;;;;;;3.53;1.87;;;;;;;;;;5096413;28;20177;-68
2023/01/04 11:09:00;;;;;;;3.33;2.00;;;;;;;;;;5097339;28;20185;-69
2023/01/04 11:11:42;;;;;;;3.17;1.90;;;;;;;;;;5096588;28;20238;-68
2023/01/04 11:14:09;;;;;;;2.30;1.60;;;;;;;;;;5096660;28;20659;-68
2023/01/04 11:16:35;;;;;;;1.73;1.63;;;;;;;;;;5097091;28;20181;-68
2023/01/04 11:19:03;;;;;;;5.03;1.70;;;;;;;;;;5096493;28;20287;-69
2023/01/04 11:21:31;;;;;;;3.90;1.90;;;;;;;;;;5096910;28;20635;-68
2023/01/04 11:24:01;;;;;;;2.17;1.97;;;;;;;;;;5096238;28;20259;-68
2023/01/04 11:26:32;;;;;;;1.60;1.50;;;;;;;;;;5096389;28;20173;-68
2023/01/04 11:29:05;;;;;;;1.93;1.57;;;;;;;;;;5096604;28;20219;-68
2023/01/04 11:31:40;;;;;;;3.63;2.13;;;;;;;;;;5078100;28;20226;-68
2023/01/04 11:34:06;;;;;;;4.53;1.90;;;;;;;;;;5096184;28;20207;-68
2023/01/04 11:36:35;;;;;;;2.13;1.70;;;;;;;;;;5096174;28;20177;-69
2023/01/04 11:39:01;;;;;;;3.40;2.20;;;;;;;;;;5096391;28;20595;-68
2023/01/04 11:41:28;;;;;;;4.10;2.67;;;;;;;;;;5078003;28;20185;-68
2023/01/04 11:44:02;;;;;;;3.43;2.10;;;;;;;;;;5096185;28;20180;-68
2023/01/04 11:46:28;;;;;;;3.10;1.97;;;;;;;;;;5098104;28;20620;-68
2023/01/04 11:48:54;;;;;;;5.53;2.00;;;;;;;;;;5079733;28;20177;-68
2023/01/04 11:51:26;;;;;;;2.03;1.77;;;;;;;;;;5098161;28;20203;-67
2023/01/04 11:54:11;;;;;;;3.17;2.00;;;;;;;;;;5083230;28;20193;-68
2023/01/04 11:56:37;;;;;;;11.13;2.10;;;;;;;;;;5100506;28;20180;-68
2023/01/04 11:59:04;;;;;;;2.87;2.00;;;;;;;;;;5096586;28;20620;-67
2023/01/04 12:01:31;;;;;;;1.80;1.70;;;;;;;;;;5078375;28;20183;-67
2023/01/04 12:03:58;;;;;;;4.17;2.03;;;;;;;;;;5096238;28;20173;-68
2023/01/04 12:06:30;;;;;;;2.70;2.10;;;;;;;;;;5096293;28;20636;-68
2023/01/04 12:08:56;;;;;;;2.80;2.00;;;;;;;;;;5096451;28;20176;-68
2023/01/04 12:11:27;;;;;;;2.00;1.80;;;;;;;;;;5095881;28;20652;-67
2023/01/04 12:13:53;;;;;;;2.00;1.70;;;;;;;;;;5095453;28;20203;-69
2023/01/04 12:16:29;;;;;;;2.10;1.70;;;;;;;;;;5095638;28;20545;-67
2023/01/04 12:18:55;;;;;;;2.77;1.83;;;;;;;;;;5094386;28;20755;-67
2023/01/04 12:21:22;;;;;;;2.33;1.90;;;;;;;;;;5095383;28;20570;-67
2023/01/04 12:23:49;;;;;;;3.20;1.83;;;;;;;;;;5095571;28;20170;-67
2023/01/04 12:26:16;;;;;;;2.03;1.80;;;;;;;;;;5095112;28;20188;-67
2023/01/04 12:28:43;;;;;;;1.87;1.57;;;;;;;;;;5077179;28;20633;-67
2023/01/04 12:31:18;;;;;;;1.57;1.47;;;;;;;;;;5076873;28;20577;-67
2023/01/04 12:34:05;;;;;;;3.17;1.80;;;;;;;;;;5095647;28;20226;-67
2023/01/04 12:36:37;;;;;;;2.73;1.70;;;;;;;;;;5054768;28;20224;-67
2023/01/04 12:39:06;;;;;;;3.07;1.80;;;;;;;;;;5095570;28;20197;-68
2023/01/04 12:41:35;;;;;;;2.30;2.10;;;;;;;;;;5095348;28;20181;-67
2023/01/04 12:44:01;;;;;;;2.20;1.73;;;;;;;;;;5095562;28;20179;-67
2023/01/04 12:49:38;;;;;;;2.23;1.40;;;;;;;;;;5096427;28;20210;-68
2023/01/04 12:52:07;;;;;;;1.50;1.40;;;;;;;;;;5057756;28;20193;-67
2023/01/04 12:54:53;;;;;;;2.00;1.50;;;;;;;;;;5095050;28;20260;-67
2023/01/04 12:57:23;;;;;;;1.83;1.50;;;;;;;;;;5094749;28;20176;-68
2023/01/04 13:00:04;;;;;;;3.47;1.80;;;;;;;;;;5094953;28;20232;-67
2023/01/04 13:02:42;;;;;;;1.50;1.40;;;;;;;;;;5095126;28;20177;-67
2023/01/04 13:05:17;;;;;;;1.97;1.30;;;;;;;;;;5094921;28;20177;-67
2023/01/04 13:07:45;;;;;;;1.97;1.30;;;;;;;;;;5094937;28;20176;-68
2023/01/04 13:10:19;;;;;;;2.53;1.47;;;;;;;;;;5094791;28;20258;-67
2023/01/04 13:12:54;;;;;;;2.07;1.80;;;;;;;;;;5094880;28;20554;-68
2023/01/04 13:15:38;;;;;;;3.03;1.47;;;;;;;;;;5094836;28;20644;-68
2023/01/04 13:18:16;;;;;;;3.80;1.50;;;;;;;;;;5094939;28;20203;-67
2023/01/04 13:20:42;;;;;;;1.57;1.47;;;;;;;;;;5077215;28;20319;-68
2023/01/04 13:23:10;;;;;;;1.67;1.57;;;;;;;;;;5096567;28;20209;-68
2023/01/04 13:25:36;;;;;;;1.50;1.40;;;;;;;;;;5096334;28;20260;-67
2023/01/04 13:28:04;;;;;;;4.00;1.73;;;;;;;;;;5081797;28;20207;-69
2023/01/04 13:30:34;;;;;;;2.00;1.67;;;;;;;;;;5104442;28;20201;-67
2023/01/04 13:33:07;;;;;;;1.80;1.70;;;;;;;;;;5099908;28;20173;-68
2023/01/04 13:35:33;;;;;;;3.73;2.83;;;;;;;;;;5105204;28;20168;-68
2023/01/04 13:37:59;;;;;;;4.20;3.80;;;;;;;;;;5108439;28;20181;-68
2023/01/04 13:40:34;;;;;;;2.83;2.60;;;;;;;;;;5109795;28;20670;-67
2023/01/04 13:43:16;;;;;;;2.83;2.63;;;;;;;;;;5095138;28;20165;-68
2023/01/04 13:46:00;;;;;;;4.73;4.23;;;;;;;;;;5076890;28;20177;-68
2023/01/04 13:48:27;;;;;;;2.90;1.90;;;;;;;;;;5079367;28;20648;-67
2023/01/04 13:51:01;;;;;;;2.27;2.07;;;;;;;;;;5096337;28;20189;-66
2023/01/04 13:53:30;;;;;;;2.70;2.50;;;;;;;;;;5077384;28;20187;-68
2023/01/04 13:55:58;;;;;;;2.13;1.90;;;;;;;;;;5077092;28;20177;-67
2023/01/04 13:58:25;;;;;;;5.03;3.53;;;;;;;;;;5076376;28;20180;-67
2023/01/04 14:01:02;;;;;;;4.80;3.73;;;;;;;;;;5094677;28;20275;-68
2023/01/04 14:03:34;;;;;;;4.67;4.27;;;;;;;;;;5076238;28;20173;-67
2023/01/04 14:06:10;;;;;;;2.50;2.30;;;;;;;;;;5076619;28;20166;-68
2023/01/04 14:08:38;;;;;;;5.97;3.77;;;;;;;;;;5094004;28;20197;-67
2023/01/04 14:11:10;;;;;;;3.17;2.80;;;;;;;;;;5075869;28;20201;-69
2023/01/04 14:13:36;;;;;;;2.33;2.07;;;;;;;;;;5076234;28;20176;-68
2023/01/04 14:16:11;;;;;;;2.70;2.40;;;;;;;;;;5075972;28;20557;-67
2023/01/04 14:18:37;;;;;;;2.57;2.30;;;;;;;;;;5093815;28;20226;-67
2023/01/04 14:21:03;;;;;;;3.37;3.07;;;;;;;;;;5075915;28;20293;-67
2023/01/04 14:23:36;;;;;;;8.23;7.43;;;;;;;;;;5094052;28;20184;-67
2023/01/04 14:26:02;;;;;;;9.87;8.83;;;;;;;;;;5093367;28;20177;-68
2023/01/04 14:28:36;;;;;;;6.67;6.03;;;;;;;;;;5093490;28;20173;-70
2023/01/04 14:31:03;;;;;;;5.33;4.83;;;;;;;;;;5075652;28;20287;-68
2023/01/04 14:33:32;;;;;;;5.40;4.97;;;;;;;;;;5095201;28;20252;-68
2023/01/04 14:36:07;;;;;;;4.07;2.77;;;;;;;;;;5093615;28;20223;-68
2023/01/04 14:38:52;;;;;;;4.47;2.47;;;;;;;;;;5094055;28;20208;-68
2023/01/04 14:41:22;;;;;;;2.27;2.07;;;;;;;;;;5093627;28;20192;-68
2023/01/04 14:43:52;;;;;;;2.37;2.20;;;;;;;;;;5097300;28;20199;-68
2023/01/04 14:46:18;;;;;;;2.90;2.60;;;;;;;;;;5097186;28;20659;-68
2023/01/04 14:48:44;;;;;;;2.73;2.53;;;;;;;;;;5097031;28;20251;-68
2023/01/04 14:51:14;;;;;;;2.30;2.20;;;;;;;;;;5078867;28;20283;-68
2023/01/04 14:53:40;;;;;;;2.47;2.27;;;;;;;;;;5097547;28;20235;-68
2023/01/04 14:56:07;;;;;;;9.63;7.97;;;;;;;;;;5096793;28;20618;-68
2023/01/04 14:58:33;;;;;;;6.87;5.33;;;;;;;;;;5096907;28;20208;-70
2023/01/04 15:00:59;;;;;;;4.07;3.77;;;;;;;;;;5096857;28;20193;-68
2023/01/04 15:03:25;;;;;;;3.30;2.87;;;;;;;;;;5078838;28;20173;-67
2023/01/04 15:05:51;;;;;;;2.70;2.50;;;;;;;;;;5097250;28;20200;-68
2023/01/04 15:08:17;;;;;;;2.87;2.67;;;;;;;;;;5097008;28;20226;-68
2023/01/04 15:10:45;;;;;;;3.33;2.80;;;;;;;;;;5078795;28;20236;-68
2023/01/04 15:15:39;;;;;;;2.70;2.20;;;;;;;;;;5113966;28;20265;-71
2023/01/04 15:18:05;;;;;;;3.03;2.53;;;;;;;;;;5098260;28;20177;-72
2023/01/04 15:20:31;;;;;;;3.17;2.60;;;;;;;;;;5098296;28;20305;-71
2023/01/04 15:22:57;;;;;;;3.03;2.27;;;;;;;;;;5116606;28;20168;-72
2023/01/04 15:25:24;;;;;;;7.77;5.57;;;;;;;;;;5116277;28;20197;-72
2023/01/04 15:27:50;;;;;;;7.07;5.20;;;;;;;;;;5117120;28;20175;-72
2023/01/04 15:30:15;;;;;;;7.43;5.47;;;;;;;;;;5116608;28;20181;-73
2023/01/04 15:32:41;;;;;;;9.90;5.17;;;;;;;;;;5116377;28;20631;-72
2023/01/04 15:35:08;;;;;;;4.57;3.10;;;;;;;;;;5116641;28;20631;-70
2023/01/04 15:37:34;;;;;;;4.70;3.37;;;;;;;;;;5116745;28;20267;-71